SLVZ weather

Villazon Airport
M.Omiste, Potosí Department, Bolivia

Public forecast

Using degrees Celsius for public forecast. Weather courtesy of forecast.io.

METAR (pilot weather report)

Closest report is Capitan Oriel Lea Plaza Airport, 58.6 nm (108.5 km) ENE. Retrieved 2019/05/23 02:00 UTC (10 minutes ago):

SLTJ 230200Z 12007KT 9999 BKN023 OVC070 08/05 Q1021

TAF (pilot weather forecast)

Forecast is more than 12 hours old.

Closest forecast is Capitan Oriel Lea Plaza Airport, 58.6 nm (108.5 km) ENE. Retrieved 2019/05/22 00:57 UTC (1 day ago):

TAF SLTJ 222200Z 2300/2324 13005KT 9999 SCT023 BKN070 TX16/2319Z TN07/2311Z BECMG 2302/2304 00000KT BKN023 BKN070 TEMPO 2304/2306 8000 RA BECMG 2314/2316 13010KT SCT027 SCT070